Time;durP1;ratioP1;P1;durP2;ratioP2;P2;SDS_P1;SDS_P2;PMS_P1;PMS_P2;Temp;Humidity;BMP_temperature;BMP_pressure;BME280_temperature;BME280_humidity;BME280_pressure;Samples;Min_cycle;Max_cycle;Signal;HPM_P1;HPM_P2
2023/03/07 00:00:02;;;;;;;;;;;;;;;2.94;63.58;96756.47;5087262;28;19967;-55
2023/03/07 00:02:31;;;;;;;;;;;;;;;3.09;63.19;96749.00;5091404;28;19962;-55
2023/03/07 00:05:01;;;;;;;;;;;;;;;3.15;63.05;96753.19;5092098;28;19924;-61
2023/03/07 00:07:30;;;;;;;;;;;;;;;3.28;62.78;96753.53;5086577;28;20014;-55
2023/03/07 00:09:58;;;;;;;;;;;;;;;3.07;63.33;96751.16;5078809;28;19951;-55
2023/03/07 00:12:26;;;;;;;;;;;;;;;3.23;62.95;96756.31;5077551;28;19925;-55
2023/03/07 00:14:55;;;;;;;;;;;;;;;3.21;62.46;96748.56;5079765;28;19932;-57
2023/03/07 00:17:22;;;;;;;;;;;;;;;3.20;63.25;96743.50;5078178;28;20560;-55
2023/03/07 00:19:50;;;;;;;;;;;;;;;3.12;62.85;96737.66;5079754;28;19929;-55
2023/03/07 00:22:20;;;;;;;;;;;;;;;3.18;63.17;96740.28;5079645;28;19978;-55
2023/03/07 00:24:47;;;;;;;;;;;;;;;3.21;62.83;96735.13;5085550;28;19924;-56
2023/03/07 00:27:15;;;;;;;;;;;;;;;3.08;62.54;96736.66;5079812;28;19956;-57
2023/03/07 00:29:43;;;;;;;;;;;;;;;3.04;63.45;96735.66;5091139;28;19970;-54
2023/03/07 00:32:11;;;;;;;;;;;;;;;3.04;63.14;96730.31;5083451;28;20377;-54
2023/03/07 00:34:39;;;;;;;;;;;;;;;3.19;62.56;96726.56;5076068;28;19928;-55
2023/03/07 00:37:06;;;;;;;;;;;;;;;3.27;62.51;96725.13;5086725;28;19948;-54
2023/03/07 00:39:37;;;;;;;;;;;;;;;3.15;62.62;96729.06;5051965;28;19924;-55
2023/03/07 00:42:07;;;;;;;;;;;;;;;3.18;61.99;96724.19;5072277;28;20323;-55
2023/03/07 00:44:35;;;;;;;;;;;;;;;3.01;62.63;96725.50;5071502;28;19928;-57
2023/03/07 00:47:03;;;;;;;;;;;;;;;3.09;62.29;96722.16;5067830;28;19925;-55
2023/03/07 00:49:31;;;;;;;;;;;;;;;3.06;62.75;96716.59;5064958;28;20011;-57
2023/03/07 00:51:59;;;;;;;;;;;;;;;3.11;62.25;96708.47;5064444;28;20270;-55
2023/03/07 00:54:28;;;;;;;;;;;;;;;3.20;62.09;96701.34;5067201;28;19943;-55
2023/03/07 00:56:58;;;;;;;;;;;;;;;3.21;62.18;96704.81;5068891;28;20411;-54
2023/03/07 00:59:26;;;;;;;;;;;;;;;3.20;62.16;96695.19;5064104;28;19932;-54
2023/03/07 01:01:54;;;;;;;;;;;;;;;3.20;62.18;96697.88;5059974;28;21191;-55
2023/03/07 01:04:22;;;;;;;;;;;;;;;3.21;61.89;96696.78;5087062;28;19928;-55
2023/03/07 01:06:49;;;;;;;;;;;;;;;3.15;61.75;96694.16;5083143;28;19931;-55
2023/03/07 01:09:17;;;;;;;;;;;;;;;3.17;61.46;96693.84;5089453;28;19924;-54
2023/03/07 01:11:45;;;;;;;;;;;;;;;2.94;62.57;96682.16;5075876;28;19924;-55
2023/03/07 01:14:14;;;;;;;;;;;;;;;3.10;61.82;96678.13;5090617;28;19924;-54
2023/03/07 01:16:42;;;;;;;;;;;;;;;3.17;61.46;96671.59;5069667;28;19955;-54
2023/03/07 01:19:12;;;;;;;;;;;;;;;3.07;61.38;96670.66;5071628;28;19926;-55
2023/03/07 01:21:41;;;;;;;;;;;;;;;3.13;61.45;96666.81;5067408;28;20304;-55
2023/03/07 01:24:10;;;;;;;;;;;;;;;3.07;61.25;96661.81;5070229;28;19924;-55
2023/03/07 01:26:40;;;;;;;;;;;;;;;3.08;61.79;96661.53;5068522;28;19964;-55
2023/03/07 01:29:10;;;;;;;;;;;;;;;3.15;61.41;96663.84;5053191;28;19925;-54
2023/03/07 01:31:39;;;;;;;;;;;;;;;3.10;61.55;96656.69;5053025;28;20297;-55
2023/03/07 01:34:07;;;;;;;;;;;;;;;2.97;62.13;96653.94;5068565;28;19924;-55
2023/03/07 01:36:36;;;;;;;;;;;;;;;3.18;60.90;96652.50;5062265;28;20011;-55
2023/03/07 01:39:06;;;;;;;;;;;;;;;3.01;61.96;96639.66;5062497;28;20397;-55
2023/03/07 01:41:37;;;;;;;;;;;;;;;2.93;61.68;96643.00;5086084;28;19924;-54
2023/03/07 01:44:13;;;;;;;;;;;;;;;3.09;61.69;96640.84;5076719;28;19925;-56
2023/03/07 01:46:44;;;;;;;;;;;;;;;3.12;61.47;96646.44;5069387;28;19925;-54
2023/03/07 01:49:32;;;;;;;;;;;;;;;3.22;60.81;96633.94;5097288;28;20336;-55
2023/03/07 01:52:03;;;;;;;;;;;;;;;3.14;61.52;96633.53;5087466;28;19977;-54
2023/03/07 01:54:33;;;;;;;;;;;;;;;3.11;61.00;96623.38;5089972;28;19939;-60
2023/03/07 01:57:01;;;;;;;;;;;;;;;3.21;61.12;96627.00;5098326;28;19924;-54
2023/03/07 01:59:29;;;;;;;;;;;;;;;3.17;61.03;96621.41;5094502;28;19924;-55
2023/03/07 02:02:00;;;;;;;;;;;;;;;3.16;60.93;96625.19;5078648;28;20369;-54
2023/03/07 02:04:30;;;;;;;;;;;;;;;3.13;61.01;96620.38;5072430;28;19924;-54
2023/03/07 02:06:59;;;;;;;;;;;;;;;3.14;61.39;96616.59;5071881;28;19924;-55
2023/03/07 02:09:27;;;;;;;;;;;;;;;3.19;60.86;96619.22;5092557;28;19947;-55
2023/03/07 02:11:56;;;;;;;;;;;;;;;3.24;60.13;96612.97;5068210;28;19932;-54
2023/03/07 02:14:24;;;;;;;;;;;;;;;3.13;61.14;96607.78;5062746;28;20381;-54
2023/03/07 02:16:52;;;;;;;;;;;;;;;3.11;60.76;96614.53;5083567;28;19935;-54
2023/03/07 02:19:28;;;;;;;;;;;;;;;3.20;60.97;96609.28;5078976;28;19924;-55
2023/03/07 02:21:59;;;;;;;;;;;;;;;3.18;60.75;96604.19;5073566;28;19946;-55
2023/03/07 02:24:28;;;;;;;;;;;;;;;3.06;61.24;96598.53;5082864;28;19928;-54
2023/03/07 02:26:57;;;;;;;;;;;;;;;3.06;61.13;96598.53;5085318;28;19929;-55
2023/03/07 02:29:25;;;;;;;;;;;;;;;3.08;61.20;96602.50;5076516;28;19939;-55
2023/03/07 02:31:53;;;;;;;;;;;;;;;3.20;60.76;96609.28;5076454;28;20377;-54
2023/03/07 02:34:22;;;;;;;;;;;;;;;3.24;60.33;96604.91;5085343;28;19924;-55
2023/03/07 02:36:54;;;;;;;;;;;;;;;3.27;59.77;96605.13;5086859;28;19928;-55
2023/03/07 02:39:23;;;;;;;;;;;;;;;3.14;60.58;96605.88;5084633;28;19924;-55
2023/03/07 02:41:54;;;;;;;;;;;;;;;3.26;59.88;96610.78;5081005;28;20029;-55
2023/03/07 02:44:40;;;;;;;;;;;;;;;3.27;60.10;96615.06;5075867;28;19947;-54
2023/03/07 02:47:08;;;;;;;;;;;;;;;3.14;60.25;96611.25;5078074;28;19931;-55
2023/03/07 02:49:36;;;;;;;;;;;;;;;3.20;59.78;96615.47;5074909;28;19951;-55
2023/03/07 02:52:04;;;;;;;;;;;;;;;3.19;60.08;96608.47;5075374;28;19924;-54
2023/03/07 02:54:32;;;;;;;;;;;;;;;3.12;60.20;96614.22;5078063;28;19924;-57
2023/03/07 02:57:00;;;;;;;;;;;;;;;3.15;60.73;96607.50;5100311;28;19928;-55
2023/03/07 02:59:28;;;;;;;;;;;;;;;3.13;60.56;96615.03;5095532;28;20406;-54
2023/03/07 03:02:21;;;;;;;;;;;;;;;3.03;60.80;96607.94;5072373;28;19928;-55
2023/03/07 03:04:51;;;;;;;;;;;;;;;2.98;61.62;96605.34;5082970;28;19924;-55
2023/03/07 03:07:23;;;;;;;;;;;;;;;3.17;60.55;96610.66;5081069;28;19933;-55
2023/03/07 03:09:51;;;;;;;;;;;;;;;3.16;61.03;96601.03;5079122;28;19924;-54
2023/03/07 03:12:18;;;;;;;;;;;;;;;3.12;60.99;96606.19;5077534;28;20274;-54
2023/03/07 03:14:46;;;;;;;;;;;;;;;3.05;61.58;96597.72;5083591;28;19982;-55
2023/03/07 03:17:14;;;;;;;;;;;;;;;2.96;62.14;96599.47;5085325;28;19935;-54
2023/03/07 03:19:42;;;;;;;;;;;;;;;2.91;62.81;96607.63;5085250;28;19925;-55
2023/03/07 03:22:11;;;;;;;;;;;;;;;2.91;63.90;96596.09;5080171;28;19974;-54
2023/03/07 03:24:43;;;;;;;;;;;;;;;2.84;64.21;96607.22;5083390;28;19924;-54
2023/03/07 03:27:14;;;;;;;;;;;;;;;2.73;65.01;96603.09;5090288;28;19924;-54
2023/03/07 03:29:44;;;;;;;;;;;;;;;2.68;65.61;96603.19;5086852;28;19931;-56
2023/03/07 03:32:12;;;;;;;;;;;;;;;2.65;66.20;96604.53;5090246;28;19924;-55
2023/03/07 03:34:43;;;;;;;;;;;;;;;2.60;67.13;96600.03;5092714;28;20015;-54
2023/03/07 03:37:12;;;;;;;;;;;;;;;2.61;66.66;96596.31;5086886;28;19935;-56
2023/03/07 03:39:40;;;;;;;;;;;;;;;2.68;66.86;96595.13;5066214;28;19924;-54
2023/03/07 03:42:08;;;;;;;;;;;;;;;2.63;66.75;96586.06;5068734;28;19939;-55
2023/03/07 03:44:36;;;;;;;;;;;;;;;2.60;66.80;96583.97;5060011;28;20178;-54
2023/03/07 03:47:04;;;;;;;;;;;;;;;2.58;67.37;96578.09;5048918;28;19924;-54
2023/03/07 03:49:32;;;;;;;;;;;;;;;2.48;67.89;96583.63;5055290;28;19986;-55
2023/03/07 03:52:00;;;;;;;;;;;;;;;2.57;67.45;96575.72;5060662;28;19928;-55
2023/03/07 03:54:29;;;;;;;;;;;;;;;2.62;66.84;96571.06;5072237;28;19925;-54
2023/03/07 03:56:58;;;;;;;;;;;;;;;2.49;67.22;96573.69;5069233;28;19951;-55
2023/03/07 03:59:25;;;;;;;;;;;;;;;2.51;67.29;96568.84;5062318;28;19932;-54
2023/03/07 04:01:53;;;;;;;;;;;;;;;2.56;66.90;96566.88;5067332;28;19948;-55
2023/03/07 04:04:22;;;;;;;;;;;;;;;2.65;66.51;96555.47;5083109;28;19925;-55
2023/03/07 04:06:49;;;;;;;;;;;;;;;2.48;66.79;96559.50;5063453;28;19928;-55
2023/03/07 04:09:17;;;;;;;;;;;;;;;2.54;66.65;96557.53;5050046;28;19942;-54
2023/03/07 04:11:48;;;;;;;;;;;;;;;2.70;65.77;96548.16;5079406;28;19929;-54
2023/03/07 04:14:16;;;;;;;;;;;;;;;2.58;66.09;96555.88;5070470;28;19924;-54
2023/03/07 04:16:45;;;;;;;;;;;;;;;2.57;65.90;96552.38;5073420;28;19925;-54
2023/03/07 04:19:14;;;;;;;;;;;;;;;2.40;66.62;96552.13;5068692;28;20400;-55
2023/03/07 04:21:43;;;;;;;;;;;;;;;2.49;66.60;96550.38;5060739;28;19925;-55
2023/03/07 04:24:13;;;;;;;;;;;;;;;2.60;66.42;96546.44;5055881;28;19924;-54
2023/03/07 04:26:42;;;;;;;;;;;;;;;2.61;66.02;96548.03;5056624;28;19924;-55
2023/03/07 04:29:11;;;;;;;;;;;;;;;2.64;65.98;96538.59;5084329;28;19924;-57
2023/03/07 04:31:48;;;;;;;;;;;;;;;2.58;65.73;96535.22;5063532;28;20014;-54
2023/03/07 04:34:17;;;;;;;;;;;;;;;2.72;65.27;96542.50;5047149;28;19959;-55
2023/03/07 04:36:44;;;;;;;;;;;;;;;2.82;64.74;96545.81;5056198;28;19933;-55
2023/03/07 04:39:13;;;;;;;;;;;;;;;2.76;64.56;96533.56;5065038;28;19935;-55
2023/03/07 04:41:41;;;;;;;;;;;;;;;2.73;65.19;96552.16;5051509;28;19924;-54
2023/03/07 04:44:21;;;;;;;;;;;;;;;2.87;64.40;96550.28;5068686;28;19924;-54
2023/03/07 04:46:49;;;;;;;;;;;;;;;2.86;64.24;96538.75;5064191;28;20377;-54
2023/03/07 04:49:17;;;;;;;;;;;;;;;2.76;64.49;96536.25;5069635;28;20001;-55
2023/03/07 04:51:44;;;;;;;;;;;;;;;2.84;63.88;96537.47;5059841;28;19951;-55
2023/03/07 04:54:15;;;;;;;;;;;;;;;2.84;63.30;96537.47;5070075;28;19932;-55
2023/03/07 04:56:44;;;;;;;;;;;;;;;2.66;64.10;96535.63;5070137;28;19964;-55
2023/03/07 04:59:12;;;;;;;;;;;;;;;2.55;64.35;96541.16;5052733;28;20607;-54
2023/03/07 05:01:42;;;;;;;;;;;;;;;2.62;63.96;96538.91;5061037;28;19971;-54
2023/03/07 05:04:10;;;;;;;;;;;;;;;2.55;63.83;96535.00;5049899;28;19924;-55
2023/03/07 05:06:38;;;;;;;;;;;;;;;2.71;63.76;96538.22;5052305;28;20424;-57
2023/03/07 05:09:07;;;;;;;;;;;;;;;2.60;64.05;96530.34;5066031;28;19933;-55
2023/03/07 05:11:35;;;;;;;;;;;;;;;2.77;63.89;96529.00;5069659;28;19978;-60
2023/03/07 05:14:03;;;;;;;;;;;;;;;2.78;64.25;96530.59;5077049;28;19931;-54
2023/03/07 05:16:32;;;;;;;;;;;;;;;2.78;63.70;96531.41;5067611;28;20388;-55
2023/03/07 05:19:02;;;;;;;;;;;;;;;2.74;64.17;96534.97;5073110;28;19977;-54
2023/03/07 05:21:32;;;;;;;;;;;;;;;2.77;64.29;96529.00;5086849;28;20018;-59
2023/03/07 05:24:01;;;;;;;;;;;;;;;2.68;64.68;96528.88;5073709;28;19952;-55
2023/03/07 05:26:30;;;;;;;;;;;;;;;2.84;63.74;96526.75;5072907;28;19924;-55
2023/03/07 05:28:58;;;;;;;;;;;;;;;2.75;63.76;96529.28;5072715;28;19928;-55
2023/03/07 05:31:26;;;;;;;;;;;;;;;2.73;64.26;96531.47;5066335;28;19928;-55
2023/03/07 05:33:54;;;;;;;;;;;;;;;2.85;64.76;96520.28;5073704;28;19970;-55
2023/03/07 05:36:23;;;;;;;;;;;;;;;2.85;64.98;96522.97;5072686;28;20373;-54
2023/03/07 05:38:52;;;;;;;;;;;;;;;2.75;64.83;96533.88;5091304;28;19928;-55
2023/03/07 05:41:20;;;;;;;;;;;;;;;2.63;65.26;96520.94;5096244;28;20385;-54
2023/03/07 05:43:48;;;;;;;;;;;;;;;2.58;66.41;96521.00;5074103;28;20274;-55
2023/03/07 05:46:16;;;;;;;;;;;;;;;2.59;65.84;96518.03;5067698;28;19924;-55
2023/03/07 05:48:44;;;;;;;;;;;;;;;2.55;66.04;96519.69;5070452;28;19924;-55
2023/03/07 05:51:12;;;;;;;;;;;;;;;2.67;65.35;96513.91;5088109;28;20309;-54
2023/03/07 05:53:42;;;;;;;;;;;;;;;2.67;65.77;96521.16;5075148;28;20285;-55
2023/03/07 05:56:10;;;;;;;;;;;;;;;2.71;65.47;96511.41;5072382;28;20354;-62
2023/03/07 05:58:38;;;;;;;;;;;;;;;2.69;65.71;96511.69;5088692;28;19928;-55
2023/03/07 06:01:06;;;;;;;;;;;;;;;2.78;65.12;96509.16;5078316;28;19932;-55
2023/03/07 06:03:34;;;;;;;;;;;;;;;2.77;65.28;96512.91;5072232;28;19924;-55
2023/03/07 06:06:02;;;;;;;;;;;;;;;2.77;64.95;96504.84;5090444;28;20293;-58
2023/03/07 06:08:32;;;;;;;;;;;;;;;2.76;64.98;96508.63;5079501;28;19925;-55
2023/03/07 06:11:02;;;;;;;;;;;;;;;2.70;65.43;96504.44;5094529;28;19925;-54
2023/03/07 06:13:36;;;;;;;;;;;;;;;2.83;65.01;96507.16;5077932;28;19924;-55
2023/03/07 06:16:04;;;;;;;;;;;;;;;2.84;64.59;96510.66;5062491;28;19970;-54
2023/03/07 06:18:32;;;;;;;;;;;;;;;2.84;64.59;96507.97;5067859;28;19932;-58
2023/03/07 06:21:00;;;;;;;;;;;;;;;2.79;64.70;96508.06;5070047;28;19925;-56
2023/03/07 06:23:32;;;;;;;;;;;;;;;3.01;64.32;96515.44;5059932;28;19924;-55
2023/03/07 06:26:00;;;;;;;;;;;;;;;2.83;64.94;96514.44;5066236;28;19966;-56
2023/03/07 06:28:29;;;;;;;;;;;;;;;2.95;64.65;96522.78;5055223;28;19924;-56
2023/03/07 06:30:59;;;;;;;;;;;;;;;3.10;63.83;96519.81;5069470;28;20003;-55
2023/03/07 06:33:27;;;;;;;;;;;;;;;3.08;64.29;96523.88;5038106;28;19929;-55
2023/03/07 06:35:55;;;;;;;;;;;;;;;3.19;63.76;96516.44;5038291;28;19975;-56
2023/03/07 06:38:23;;;;;;;;;;;;;;;3.11;64.22;96521.41;5030754;28;19979;-55
2023/03/07 06:40:54;;;;;;;;;;;;;;;3.19;63.72;96525.28;5048885;28;20691;-55
2023/03/07 06:43:22;;;;;;;;;;;;;;;3.26;63.34;96523.00;5048214;28;20378;-55
2023/03/07 06:45:51;;;;;;;;;;;;;;;3.32;63.20;96515.66;5042501;28;19932;-55
2023/03/07 06:48:21;;;;;;;;;;;;;;;3.28;64.08;96514.66;5043658;28;19924;-54
2023/03/07 06:50:49;;;;;;;;;;;;;;;3.39;63.41;96508.78;5018968;28;19925;-54
2023/03/07 06:53:17;;;;;;;;;;;;;;;3.51;63.07;96516.31;5030514;28;19925;-54
2023/03/07 06:55:47;;;;;;;;;;;;;;;3.34;63.82;96510.78;5029317;28;19939;-55
2023/03/07 06:58:16;;;;;;;;;;;;;;;3.33;63.14;96517.25;5027211;28;19925;-54
2023/03/07 07:00:44;;;;;;;;;;;;;;;3.64;62.20;96514.75;5038073;28;20429;-54
2023/03/07 07:03:13;;;;;;;;;;;;;;;3.63;62.34;96511.25;5063937;28;19932;-54
2023/03/07 07:05:41;;;;;;;;;;;;;;;3.72;62.21;96507.84;5070487;28;20382;-55
2023/03/07 07:08:09;;;;;;;;;;;;;;;3.72;61.33;96511.34;5056112;28;20290;-54
2023/03/07 07:10:37;;;;;;;;;;;;;;;3.67;61.54;96501.53;5075560;28;19936;-55
2023/03/07 07:13:06;;;;;;;;;;;;;;;3.35;63.12;96509.69;5072395;28;19957;-54
2023/03/07 07:15:35;;;;;;;;;;;;;;;3.73;61.75;96504.06;5049387;28;19974;-55
2023/03/07 07:18:02;;;;;;;;;;;;;;;3.76;61.49;96504.28;5052278;28;20350;-54
2023/03/07 07:20:33;;;;;;;;;;;;;;;3.76;61.61;96498.91;5026333;28;20334;-57
2023/03/07 07:23:02;;;;;;;;;;;;;;;3.77;61.86;96510.44;5055089;28;19929;-54
2023/03/07 07:25:30;;;;;;;;;;;;;;;3.85;61.52;96507.84;5052491;28;19994;-55
2023/03/07 07:27:57;;;;;;;;;;;;;;;3.98;61.17;96518.84;5034489;28;19925;-54
2023/03/07 07:30:25;;;;;;;;;;;;;;;4.07;59.90;96512.47;5040473;28;19944;-54
2023/03/07 07:32:53;;;;;;;;;;;;;;;4.04;60.22;96504.19;5051795;28;19966;-54
2023/03/07 07:35:22;;;;;;;;;;;;;;;3.73;61.16;96504.06;5070474;28;20611;-53
2023/03/07 07:37:52;;;;;;;;;;;;;;;4.01;61.24;96510.19;5072680;28;19963;-53
2023/03/07 07:40:20;;;;;;;;;;;;;;;4.08;60.33;96505.19;5073124;28;19935;-52
2023/03/07 07:42:53;;;;;;;;;;;;;;;4.00;60.13;96503.25;5065155;28;19951;-52
2023/03/07 07:45:41;;;;;;;;;;;;;;;4.08;60.20;96505.97;5082460;28;19924;-52
2023/03/07 07:48:14;;;;;;;;;;;;;;;4.10;60.66;96502.97;5087880;28;19935;-53
2023/03/07 07:50:42;;;;;;;;;;;;;;;4.18;60.27;96505.75;5082032;28;19939;-53
2023/03/07 07:53:12;;;;;;;;;;;;;;;4.22;60.65;96505.16;5104698;28;19951;-53
2023/03/07 07:55:40;;;;;;;;;;;;;;;4.27;60.06;96510.41;5076451;28;19925;-54
2023/03/07 07:58:08;;;;;;;;;;;;;;;4.03;60.54;96508.78;5091729;28;19977;-54
2023/03/07 08:00:36;;;;;;;;;;;;;;;4.09;60.50;96506.78;5079772;28;19975;-54
2023/03/07 08:03:06;;;;;;;;;;;;;;;4.22;60.41;96505.16;5067740;28;20390;-54
2023/03/07 08:05:33;;;;;;;;;;;;;;;4.28;60.17;96515.47;5067564;28;19936;-56
2023/03/07 08:08:01;;;;;;;;;;;;;;;4.39;59.03;96505.28;5055454;28;19967;-54
2023/03/07 08:10:31;;;;;;;;;;;;;;;4.50;59.09;96501.25;5060759;28;19959;-53
2023/03/07 08:12:59;;;;;;;;;;;;;;;4.31;59.77;96504.09;5065980;28;19974;-54
2023/03/07 08:15:26;;;;;;;;;;;;;;;4.38;59.91;96503.69;5062878;28;19931;-54
2023/03/07 08:17:54;;;;;;;;;;;;;;;4.66;58.73;96498.97;5083941;28;19924;-55
2023/03/07 08:20:24;;;;;;;;;;;;;;;4.64;58.40;96501.97;5087774;28;19958;-54
2023/03/07 08:22:52;;;;;;;;;;;;;;;4.54;58.65;96496.84;5090430;28;19928;-53
2023/03/07 08:25:23;;;;;;;;;;;;;;;4.45;59.31;96499.47;5091327;28;20019;-54
2023/03/07 08:27:53;;;;;;;;;;;;;;;4.57;59.06;96495.41;5088932;28;20423;-54
2023/03/07 08:30:21;;;;;;;;;;;;;;;4.54;59.02;96496.84;5083222;28;20484;-54
2023/03/07 08:32:50;;;;;;;;;;;;;;;4.68;58.22;96486.78;5092961;28;20388;-53
2023/03/07 08:35:20;;;;;;;;;;;;;;;4.65;58.18;96492.78;5106056;28;20000;-53
2023/03/07 08:37:49;;;;;;;;;;;;;;;4.76;57.45;96484.47;5087110;28;19959;-53
2023/03/07 08:40:19;;;;;;;;;;;;;;;4.81;57.69;96484.34;5087006;28;19956;-53
2023/03/07 08:42:47;;;;;;;;;;;;;;;4.75;58.02;96485.59;5085570;28;20413;-53
2023/03/07 08:45:16;;;;;;;;;;;;;;;4.84;57.50;96495.25;5087743;28;19924;-55
2023/03/07 08:47:46;;;;;;;;;;;;;;;4.87;57.14;96488.47;5088669;28;20327;-54
2023/03/07 08:50:14;;;;;;;;;;;;;;;4.97;56.80;96488.22;5089719;28;19931;-54
2023/03/07 08:52:42;;;;;;;;;;;;;;;4.99;57.12;96486.78;5090436;28;19924;-54
2023/03/07 08:55:10;;;;;;;;;;;;;;;5.02;56.48;96480.00;5082811;28;19929;-54
2023/03/07 08:57:38;;;;;;;;;;;;;;;5.05;56.93;96479.38;5092184;28;19963;-59
2023/03/07 09:00:08;;;;;;;;;;;;;;;5.13;56.11;96484.00;5076448;28;19928;-53
2023/03/07 09:02:37;;;;;;;;;;;;;;;5.10;56.60;96481.13;5101128;28;19958;-54
2023/03/07 09:05:06;;;;;;;;;;;;;;;5.06;56.26;96478.28;5083096;28;19941;-55
2023/03/07 09:07:34;;;;;;;;;;;;;;;5.09;56.42;96476.88;5076400;28;19942;-54
2023/03/07 09:10:03;;;;;;;;;;;;;;;5.20;55.13;96478.97;5088637;28;19959;-55
2023/03/07 09:12:30;;;;;;;;;;;;;;;5.25;55.54;96486.13;5089067;28;19934;-54
2023/03/07 09:14:59;;;;;;;;;;;;;;;5.38;55.29;96471.75;5091351;28;19950;-59
2023/03/07 09:17:27;;;;;;;;;;;;;;;5.47;54.74;96469.06;5094059;28;19950;-53
2023/03/07 09:19:56;;;;;;;;;;;;;;;5.55;54.64;96460.22;5103180;28;20422;-57
2023/03/07 09:22:24;;;;;;;;;;;;;;;5.63;54.13;96459.44;5102727;28;19934;-54
2023/03/07 09:24:52;;;;;;;;;;;;;;;5.68;54.07;96461.97;5097189;28;20243;-54
2023/03/07 09:27:19;;;;;;;;;;;;;;;5.78;53.75;96467.06;5108078;28;19942;-54
2023/03/07 09:29:47;;;;;;;;;;;;;;;5.88;53.54;96449.81;5105516;28;20307;-53
2023/03/07 09:32:15;;;;;;;;;;;;;;;5.92;52.76;96447.31;5090532;28;19950;-53
2023/03/07 09:34:43;;;;;;;;;;;;;;;5.91;53.03;96454.59;5087396;28;19955;-54
2023/03/07 09:37:12;;;;;;;;;;;;;;;5.89;53.15;96447.91;5089728;28;19943;-54
2023/03/07 09:39:40;;;;;;;;;;;;;;;5.79;52.91;96443.59;5076247;28;19929;-53
2023/03/07 09:42:11;;;;;;;;;;;;;;;5.82;53.04;96447.59;5061495;28;20396;-55
2023/03/07 09:44:44;;;;;;;;;;;;;;;5.83;52.85;96449.16;5071584;28;20428;-54
2023/03/07 09:47:31;;;;;;;;;;;;;;;5.76;52.74;96445.03;5059307;28;19958;-54
2023/03/07 09:49:59;;;;;;;;;;;;;;;5.72;53.52;96430.59;5086492;28;19963;-54
2023/03/07 09:52:28;;;;;;;;;;;;;;;5.84;53.28;96429.19;5090362;28;19935;-54
2023/03/07 09:54:58;;;;;;;;;;;;;;;5.82;52.87;96426.81;5084705;28;20411;-55
2023/03/07 09:57:28;;;;;;;;;;;;;;;5.96;52.62;96421.28;5079515;28;19974;-53
2023/03/07 09:59:56;;;;;;;;;;;;;;;6.01;51.92;96421.13;5086998;28;20383;-54
2023/03/07 10:02:26;;;;;;;;;;;;;;;6.01;52.22;96419.22;5054494;28;19924;-54
2023/03/07 10:04:55;;;;;;;;;;;;;;;6.06;51.90;96415.56;5068277;28;19948;-56
2023/03/07 10:07:23;;;;;;;;;;;;;;;6.00;51.49;96414.16;5064498;28;19925;-53
2023/03/07 10:09:54;;;;;;;;;;;;;;;5.99;52.03;96420.66;5064423;28;19939;-54
2023/03/07 10:12:27;;;;;;;;;;;;;;;6.09;51.87;96420.34;5058739;28;19928;-53
2023/03/07 10:15:02;;;;;;;;;;;;;;;6.17;51.48;96416.81;5058816;28;19964;-53
2023/03/07 10:17:36;;;;;;;;;;;;;;;6.29;51.10;96408.91;5063258;28;20369;-56
2023/03/07 10:20:08;;;;;;;;;;;;;;;6.26;50.81;96404.13;5059306;28;20309;-53
2023/03/07 10:22:37;;;;;;;;;;;;;;;6.43;50.51;96406.00;5068959;28;19932;-53
2023/03/07 10:25:08;;;;;;;;;;;;;;;6.68;49.25;96412.44;5058036;28;19931;-54
2023/03/07 10:27:36;;;;;;;;;;;;;;;6.67;49.47;96413.56;5068661;28;19970;-53
2023/03/07 10:30:09;;;;;;;;;;;;;;;6.98;48.50;96397.09;5061888;28;19925;-55
2023/03/07 10:32:37;;;;;;;;;;;;;;;7.35;47.18;96403.59;5083256;28;19935;-55
2023/03/07 10:35:17;;;;;;;;;;;;;;;7.34;46.75;96393.88;5083167;28;20345;-57
2023/03/07 10:37:49;;;;;;;;;;;;;;;7.23;46.76;96387.25;5091901;28;19924;-55
2023/03/07 10:40:20;;;;;;;;;;;;;;;7.19;47.21;96386.34;5102723;28;19947;-55
2023/03/07 10:42:47;;;;;;;;;;;;;;;7.24;46.90;96388.06;5107128;28;19963;-55
2023/03/07 10:45:18;;;;;;;;;;;;;;;7.27;47.14;96372.00;5100966;28;19947;-54
2023/03/07 10:47:46;;;;;;;;;;;;;;;7.12;46.83;96375.25;5076492;28;20381;-54
2023/03/07 10:50:20;;;;;;;;;;;;;;;7.28;46.92;96378.97;5086721;28;20381;-54
2023/03/07 10:52:49;;;;;;;;;;;;;;;7.39;46.19;96362.38;5084162;28;19928;-54
2023/03/07 10:55:34;;;;;;;;;;;;;;;7.55;45.55;96366.09;5082298;28;19931;-55
2023/03/07 10:58:19;;;;;;;;;;;;;;;7.23;46.36;96367.56;5079745;28;20224;-54
2023/03/07 11:00:57;;;;;;;;;;;;;;;7.40;46.26;96361.25;5080009;28;20332;-54
2023/03/07 11:03:27;;;;;;;;;;;;;;;7.54;45.67;96359.09;5083891;28;19924;-56
2023/03/07 11:05:54;;;;;;;;;;;;;;;7.44;45.30;96351.38;5077086;28;19924;-54
2023/03/07 11:08:30;;;;;;;;;;;;;;;7.49;45.41;96345.78;5082864;28;19931;-54
2023/03/07 11:11:04;;;;;;;;;;;;;;;7.34;45.12;96347.16;5086857;28;19931;-55
2023/03/07 11:13:32;;;;;;;;;;;;;;;7.35;45.24;96346.84;5086764;28;19928;-60
2023/03/07 11:16:14;;;;;;;;;;;;;;;7.41;45.08;96338.56;5077660;28;19931;-55
2023/03/07 11:18:42;;;;;;;;;;;;;;;7.66;44.62;96340.25;5075659;28;20380;-58
2023/03/07 11:21:25;;;;;;;;;;;;;;;7.57;43.83;96334.13;5090865;28;20019;-56
2023/03/07 11:23:58;;;;;;;;;;;;;;;7.62;43.57;96325.84;5086912;28;20424;-55
2023/03/07 11:26:32;;;;;;;;;;;;;;;7.60;43.78;96319.94;5088112;28;19975;-54
2023/03/07 11:29:04;;;;;;;;;;;;;;;7.59;42.95;96318.38;5088729;28;20007;-56
2023/03/07 11:31:32;;;;;;;;;;;;;;;7.48;43.63;96322.59;5075862;28;19998;-57
2023/03/07 11:34:01;;;;;;;;;;;;;;;7.53;44.14;96314.28;5085807;28;20596;-55
2023/03/07 11:36:31;;;;;;;;;;;;;;;7.58;43.82;96308.69;5080956;28;19924;-54
2023/03/07 11:39:00;;;;;;;;;;;;;;;7.64;43.65;96314.69;5088564;28;19928;-54
2023/03/07 11:41:30;;;;;;;;;;;;;;;7.64;42.86;96312.75;5080776;28;19935;-56
2023/03/07 11:44:04;;;;;;;;;;;;;;;7.47;43.39;96312.91;5083230;28;19928;-55
2023/03/07 11:46:36;;;;;;;;;;;;;;;7.60;43.53;96304.53;5075990;28;19928;-59
2023/03/07 11:49:07;;;;;;;;;;;;;;;7.59;42.89;96310.25;5088192;28;19924;-54
2023/03/07 11:51:40;;;;;;;;;;;;;;;7.53;42.94;96298.06;5089768;28;19928;-54
2023/03/07 11:54:10;;;;;;;;;;;;;;;7.38;43.30;96299.47;5093757;28;19931;-57
2023/03/07 11:56:39;;;;;;;;;;;;;;;7.50;43.02;96293.31;5075436;28;19937;-54
2023/03/07 11:59:21;;;;;;;;;;;;;;;7.53;42.10;96301.56;5089398;28;19924;-56
2023/03/07 12:01:53;;;;;;;;;;;;;;;7.46;43.04;96285.09;5079579;28;19928;-53
2023/03/07 12:04:25;;;;;;;;;;;;;;;7.57;42.82;96282.78;5092479;28;19924;-56
2023/03/07 12:06:56;;;;;;;;;;;;;;;7.52;42.79;96285.69;5080295;28;20406;-55
2023/03/07 12:09:28;;;;;;;;;;;;;;;7.41;42.72;96285.31;5072091;28;20384;-55
2023/03/07 12:11:59;;;;;;;;;;;;;;;7.23;43.09;96275.72;5072285;28;19964;-54
2023/03/07 12:14:31;;;;;;;;;;;;;;;7.12;43.48;96278.03;5089814;28;19928;-53
2023/03/07 12:17:01;;;;;;;;;;;;;;;7.07;43.60;96279.00;5073954;28;20296;-54
2023/03/07 12:19:36;;;;;;;;;;;;;;;6.97;43.78;96265.91;5082370;28;19936;-54
2023/03/07 12:22:23;;;;;;;;;;;;;;;6.95;43.11;96289.75;5086886;28;19972;-53
2023/03/07 12:24:56;;;;;;;;;;;;;;;6.91;42.70;96271.81;5087602;28;20264;-54
2023/03/07 12:27:26;;;;;;;;;;;;;;;6.80;42.49;96280.28;5086309;28;19932;-57
2023/03/07 12:29:57;;;;;;;;;;;;;;;6.72;42.96;96277.66;5088739;28;20071;-59
2023/03/07 12:32:25;;;;;;;;;;;;;;;6.73;43.51;96292.75;5085353;28;19924;-55
2023/03/07 12:34:54;;;;;;;;;;;;;;;6.65;43.87;96291.66;5086500;28;19935;-54
2023/03/07 12:37:22;;;;;;;;;;;;;;;6.63;44.00;96283.09;5083235;28;19924;-54
2023/03/07 12:39:52;;;;;;;;;;;;;;;6.54;44.36;96279.63;5078949;28;20293;-59
2023/03/07 12:42:24;;;;;;;;;;;;;;;6.67;44.79;96285.94;5112287;28;19924;-55
2023/03/07 12:44:53;;;;;;;;;;;;;;;6.62;44.17;96286.13;5093128;28;19935;-55
2023/03/07 12:47:23;;;;;;;;;;;;;;;6.59;44.58;96284.84;5100607;28;20421;-55
2023/03/07 12:49:53;;;;;;;;;;;;;;;6.48;44.87;96281.72;5093612;28;20373;-55
2023/03/07 12:52:23;;;;;;;;;;;;;;;6.55;44.85;96275.81;5079928;28;19924;-55
2023/03/07 12:54:53;;;;;;;;;;;;;;;6.53;44.93;96278.84;5092901;28;20567;-55
2023/03/07 12:57:22;;;;;;;;;;;;;;;6.53;43.85;96272.66;5105899;28;19930;-56
2023/03/07 12:59:52;;;;;;;;;;;;;;;6.53;43.08;96278.06;5106109;28;20389;-55
2023/03/07 13:02:21;;;;;;;;;;;;;;;6.39;43.14;96280.19;5092043;28;19939;-55
2023/03/07 13:04:50;;;;;;;;;;;;;;;6.31;43.55;96284.50;5102444;28;19935;-55
2023/03/07 13:07:18;;;;;;;;;;;;;;;6.26;43.13;96277.38;5100103;28;19924;-56
2023/03/07 13:09:46;;;;;;;;;;;;;;;6.21;43.46;96276.78;5099586;28;19931;-55